Time;durP1;ratioP1;P1;durP2;ratioP2;P2;SDS_P1;SDS_P2;PMS_P1;PMS_P2;Temp;Humidity;BMP_temperature;BMP_pressure;BME280_temperature;BME280_humidity;BME280_pressure;Samples;Min_cycle;Max_cycle;Signal;HPM_P1;HPM_P2
2022/06/18 00:00:19;;;;;;;3.07;1.97;;;21.90;84.20;;;;;;5005741;28;20411;-71
2022/06/18 00:02:45;;;;;;;2.77;2.20;;;22.00;84.20;;;;;;5005709;28;20714;-71
2022/06/18 00:05:13;;;;;;;2.10;1.87;;;21.90;84.20;;;;;;4995296;28;20438;-71
2022/06/18 00:07:43;;;;;;;2.63;1.90;;;21.90;84.50;;;;;;5005721;28;20211;-72
2022/06/18 00:10:18;;;;;;;1.90;1.80;;;21.70;84.40;;;;;;5004859;28;20458;-71
2022/06/18 00:15:34;;;;;;;2.53;1.97;;;21.70;85.40;;;;;;5005745;28;20863;-71
2022/06/18 00:18:01;;;;;;;2.30;2.10;;;21.70;85.00;;;;;;5004858;28;20798;-71
2022/06/18 00:20:30;;;;;;;2.30;2.10;;;21.80;84.50;;;;;;5005608;28;20411;-71
2022/06/18 00:22:59;;;;;;;2.97;2.17;;;21.70;85.50;;;;;;5020702;28;20418;-70
2022/06/18 00:25:40;;;;;;;2.10;1.90;;;21.70;86.10;;;;;;5005446;28;20983;-70
2022/06/18 00:28:22;;;;;;;2.13;1.87;;;21.70;86.60;;;;;;5005495;28;20422;-71
2022/06/18 00:30:49;;;;;;;2.07;1.83;;;21.60;87.00;;;;;;5005361;28;20413;-71
2022/06/18 00:33:15;;;;;;;2.00;1.90;;;21.60;88.10;;;;;;5005247;28;21022;-71
2022/06/18 00:35:42;;;;;;;2.10;1.90;;;21.60;87.90;;;;;;5005677;28;20415;-72
2022/06/18 00:38:14;;;;;;;2.77;2.27;;;21.60;88.10;;;;;;5005250;28;20447;-71
2022/06/18 00:40:42;;;;;;;3.53;1.80;;;21.50;88.40;;;;;;4990820;28;20482;-72
2022/06/18 00:43:23;;;;;;;3.10;1.90;;;21.50;88.90;;;;;;4985734;28;20411;-71
2022/06/18 00:45:53;;;;;;;2.00;1.77;;;21.40;89.20;;;;;;5004962;28;20395;-71
2022/06/18 00:48:37;;;;;;;3.00;2.00;;;21.20;89.90;;;;;;5005210;28;20462;-72
2022/06/18 00:51:26;;;;;;;3.03;2.03;;;21.10;90.50;;;;;;4989744;28;20455;-73
2022/06/18 00:53:59;;;;;;;2.37;2.17;;;21.20;90.50;;;;;;4985475;28;20938;-71
2022/06/18 00:56:40;;;;;;;3.80;1.90;;;21.20;90.80;;;;;;4985526;28;20420;-72
2022/06/18 00:59:31;;;;;;;2.00;1.90;;;21.20;91.10;;;;;;5003691;28;20435;-70
2022/06/18 01:01:58;;;;;;;2.60;2.40;;;21.20;91.20;;;;;;5004061;28;20426;-70
2022/06/18 01:04:33;;;;;;;2.73;1.97;;;21.10;91.40;;;;;;5004941;28;20426;-71
2022/06/18 01:07:06;;;;;;;3.70;2.57;;;20.90;91.80;;;;;;5004492;28;20532;-70
2022/06/18 01:09:34;;;;;;;2.90;2.70;;;20.90;92.10;;;;;;5003735;28;20427;-71
2022/06/18 01:12:00;;;;;;;2.43;2.23;;;20.80;92.60;;;;;;5004403;28;20469;-71
2022/06/18 01:14:27;;;;;;;2.13;2.00;;;20.90;92.80;;;;;;5003983;28;20411;-70
2022/06/18 01:16:58;;;;;;;1.83;1.73;;;21.00;93.00;;;;;;5004357;28;20427;-71
2022/06/18 01:19:39;;;;;;;4.37;2.50;;;20.80;93.40;;;;;;5004947;28;20403;-71
2022/06/18 01:22:44;;;;;;;3.43;2.23;;;20.80;93.90;;;;;;5004865;28;20974;-70
2022/06/18 01:25:10;;;;;;;2.83;2.63;;;20.80;94.40;;;;;;5003304;28;20436;-70
2022/06/18 01:27:37;;;;;;;3.07;2.50;;;20.70;94.90;;;;;;4995810;28;20448;-71
2022/06/18 01:30:16;;;;;;;2.60;1.90;;;20.60;95.10;;;;;;4984683;28;20447;-71
2022/06/18 01:32:43;;;;;;;2.63;2.20;;;20.60;95.50;;;;;;4984931;28;20535;-70
2022/06/18 01:35:10;;;;;;;3.03;2.40;;;20.60;95.60;;;;;;4984854;28;20435;-71
2022/06/18 01:37:36;;;;;;;3.80;2.30;;;20.60;95.70;;;;;;4984705;28;20804;-71
2022/06/18 01:40:03;;;;;;;2.50;2.10;;;20.60;95.80;;;;;;4984950;28;20412;-70
2022/06/18 01:42:47;;;;;;;2.93;2.70;;;20.80;95.70;;;;;;5003845;28;20188;-72
2022/06/18 01:45:19;;;;;;;5.63;2.60;;;20.70;95.80;;;;;;5004078;28;20425;-70
2022/06/18 01:47:47;;;;;;;3.67;2.60;;;20.50;96.30;;;;;;5004159;28;20446;-70
2022/06/18 01:50:36;;;;;;;2.70;2.50;;;20.50;96.50;;;;;;5004169;28;20418;-71
2022/06/18 01:53:23;;;;;;;3.77;2.20;;;20.50;96.70;;;;;;5004216;28;20447;-70
2022/06/18 01:55:54;;;;;;;3.30;2.43;;;20.50;96.70;;;;;;5004224;28;20417;-70
2022/06/18 01:58:25;;;;;;;2.67;2.47;;;20.40;97.00;;;;;;5004215;28;20803;-71
2022/06/18 02:00:57;;;;;;;3.00;2.73;;;20.30;97.50;;;;;;5003945;28;20418;-71
2022/06/18 02:03:22;;;;;;;2.70;2.40;;;20.20;97.30;;;;;;5003775;28;20494;-72
2022/06/18 02:05:48;;;;;;;3.10;2.80;;;20.30;97.60;;;;;;5004211;28;20497;-71
2022/06/18 02:08:16;;;;;;;2.40;2.20;;;20.30;97.70;;;;;;5003600;28;20556;-71
2022/06/18 02:10:49;;;;;;;3.63;2.87;;;20.30;98.10;;;;;;5003792;28;20183;-71
2022/06/18 02:13:15;;;;;;;4.07;2.50;;;20.40;98.20;;;;;;5005484;28;21049;-71
2022/06/18 02:15:45;;;;;;;2.97;2.60;;;20.40;97.80;;;;;;5007838;28;20501;-71
2022/06/18 02:18:14;;;;;;;2.43;2.23;;;20.30;98.30;;;;;;5007691;28;20792;-70
2022/06/18 02:20:48;;;;;;;2.80;2.60;;;20.30;98.40;;;;;;5008257;28;20419;-71
2022/06/18 02:23:15;;;;;;;4.27;2.80;;;20.20;98.80;;;;;;5007665;28;20486;-71
2022/06/18 02:25:41;;;;;;;3.80;3.50;;;20.20;98.80;;;;;;5007936;28;20422;-71
2022/06/18 02:28:12;;;;;;;4.00;2.83;;;20.20;99.00;;;;;;5007932;28;20443;-72
2022/06/18 02:30:37;;;;;;;3.00;2.80;;;20.10;99.00;;;;;;5007483;28;20672;-71
2022/06/18 02:33:39;;;;;;;3.90;2.80;;;20.20;99.40;;;;;;5007278;28;20462;-70
2022/06/18 02:36:28;;;;;;;2.60;2.40;;;20.20;99.60;;;;;;5004008;28;20606;-71
2022/06/18 02:39:09;;;;;;;2.97;2.77;;;20.20;99.40;;;;;;5007540;28;20433;-71
2022/06/18 02:41:38;;;;;;;2.97;2.77;;;20.10;99.60;;;;;;5007681;28;20898;-71
2022/06/18 02:44:04;;;;;;;4.10;2.97;;;20.20;99.90;;;;;;4990226;28;20434;-70
2022/06/18 02:46:29;;;;;;;2.57;2.37;;;20.10;99.90;;;;;;5006661;28;20990;-70
2022/06/18 02:49:00;;;;;;;4.43;2.60;;;20.10;99.90;;;;;;5006205;28;20774;-71
2022/06/18 02:51:26;;;;;;;3.53;2.77;;;20.20;99.90;;;;;;5007301;28;20211;-71
2022/06/18 02:53:51;;;;;;;3.40;3.10;;;20.20;99.90;;;;;;5007029;28;20414;-70
2022/06/18 02:56:17;;;;;;;3.37;3.07;;;20.10;99.90;;;;;;5005084;28;20203;-70
2022/06/18 02:58:47;;;;;;;3.30;3.00;;;20.10;99.90;;;;;;4987509;28;20180;-70
2022/06/18 03:01:20;;;;;;;2.93;2.73;;;20.20;99.90;;;;;;4987796;28;20557;-70
2022/06/18 03:03:49;;;;;;;3.20;2.97;;;20.20;99.90;;;;;;5006579;28;20541;-69
2022/06/18 03:06:17;;;;;;;3.07;2.80;;;20.20;99.90;;;;;;5005726;28;20434;-69
2022/06/18 03:08:46;;;;;;;2.73;2.30;;;20.10;99.90;;;;;;5006968;28;20407;-72
2022/06/18 03:13:57;;;;;;;3.30;3.10;;;19.90;99.90;;;;;;5005595;28;20426;-71
2022/06/18 03:16:23;;;;;;;3.77;3.20;;;19.90;99.90;;;;;;5006306;28;20955;-71
2022/06/18 03:18:51;;;;;;;3.90;3.60;;;19.90;99.90;;;;;;5006939;28;20184;-70
2022/06/18 03:21:39;;;;;;;3.33;3.13;;;19.90;99.90;;;;;;5006767;28;20617;-72
2022/06/18 03:24:05;;;;;;;6.00;3.50;;;19.80;99.90;;;;;;5006232;28;20414;-71
2022/06/18 03:26:31;;;;;;;3.30;3.10;;;19.80;99.90;;;;;;5006360;28;20439;-70
2022/06/18 03:28:57;;;;;;;3.83;3.50;;;19.80;99.90;;;;;;5006828;28;20509;-70
2022/06/18 03:31:23;;;;;;;3.60;3.30;;;19.80;99.90;;;;;;5006321;28;20450;-69
2022/06/18 03:33:49;;;;;;;3.00;2.80;;;19.80;99.90;;;;;;5005012;28;20944;-71
2022/06/18 03:36:17;;;;;;;3.20;2.90;;;19.80;99.90;;;;;;5006426;28;20219;-71
2022/06/18 03:38:43;;;;;;;3.00;2.80;;;19.90;99.90;;;;;;5006267;28;21042;-71
2022/06/18 03:41:10;;;;;;;3.20;3.00;;;19.90;99.90;;;;;;5006423;28;20421;-70
2022/06/18 03:43:36;;;;;;;3.70;3.40;;;19.90;99.90;;;;;;5006273;28;20505;-70
2022/06/18 03:46:09;;;;;;;3.27;2.97;;;19.90;99.90;;;;;;5005936;28;20541;-71
2022/06/18 03:48:49;;;;;;;3.10;2.90;;;20.00;99.90;;;;;;5004597;28;20218;-70
2022/06/18 03:51:16;;;;;;;3.80;3.50;;;20.10;99.90;;;;;;5006405;28;20463;-71
2022/06/18 03:53:42;;;;;;;4.47;3.17;;;20.10;99.90;;;;;;5005943;28;20437;-71
2022/06/18 03:56:13;;;;;;;3.30;2.93;;;20.10;99.90;;;;;;5006226;28;20419;-71
2022/06/18 03:58:39;;;;;;;3.60;3.30;;;20.00;99.90;;;;;;5006104;28;20417;-71
2022/06/18 04:01:05;;;;;;;3.60;3.30;;;19.90;99.90;;;;;;5005759;28;20461;-70
2022/06/18 04:03:31;;;;;;;3.90;3.50;;;19.90;99.90;;;;;;5005869;28;20537;-71
2022/06/18 04:05:57;;;;;;;4.10;3.33;;;20.00;99.90;;;;;;5005720;28;21144;-70
2022/06/18 04:08:23;;;;;;;3.33;3.03;;;20.10;99.90;;;;;;5006101;28;20278;-69
2022/06/18 04:10:49;;;;;;;4.00;3.70;;;20.20;99.90;;;;;;5005834;28;20254;-71
2022/06/18 04:13:15;;;;;;;4.07;3.67;;;20.20;99.90;;;;;;5005626;28;20549;-70
2022/06/18 04:15:41;;;;;;;3.73;3.43;;;20.20;99.90;;;;;;5005553;28;20652;-70
2022/06/18 04:18:07;;;;;;;3.63;3.33;;;20.30;99.90;;;;;;5005108;28;20192;-70
2022/06/18 04:20:37;;;;;;;4.90;3.17;;;20.30;99.90;;;;;;5005904;28;20422;-71
2022/06/18 04:23:04;;;;;;;3.43;3.20;;;20.50;99.90;;;;;;4990850;28;20423;-70
2022/06/18 04:25:30;;;;;;;2.83;2.63;;;20.50;99.90;;;;;;5005922;28;20822;-71
2022/06/18 04:27:58;;;;;;;3.83;3.20;;;20.40;99.90;;;;;;5005546;28;20443;-71
2022/06/18 04:30:29;;;;;;;4.00;3.60;;;20.30;99.90;;;;;;5005204;28;20407;-72
2022/06/18 04:32:56;;;;;;;3.77;3.47;;;20.20;99.90;;;;;;5004837;28;20450;-70
2022/06/18 04:35:22;;;;;;;3.53;3.23;;;20.10;99.90;;;;;;5004647;28;20831;-71
2022/06/18 04:37:48;;;;;;;7.90;3.90;;;20.10;99.90;;;;;;5005108;28;20435;-71
2022/06/18 04:40:19;;;;;;;3.90;3.60;;;20.20;99.90;;;;;;5005598;28;20418;-69
2022/06/18 04:42:44;;;;;;;3.27;3.03;;;20.20;99.90;;;;;;5005091;28;20411;-71
2022/06/18 04:45:11;;;;;;;3.80;3.50;;;20.20;99.90;;;;;;5005033;28;20750;-71
2022/06/18 04:47:36;;;;;;;3.20;3.00;;;20.30;99.90;;;;;;5004806;28;20215;-71
2022/06/18 04:50:07;;;;;;;3.87;3.33;;;20.30;99.90;;;;;;5005459;28;20492;-71
2022/06/18 04:52:32;;;;;;;5.17;3.70;;;20.50;99.90;;;;;;5005018;28;20287;-71
2022/06/18 04:54:58;;;;;;;4.90;3.70;;;20.60;99.90;;;;;;5004967;28;20501;-71
2022/06/18 04:57:24;;;;;;;3.67;3.37;;;20.70;99.90;;;;;;5004913;28;20188;-72
2022/06/18 04:59:49;;;;;;;3.30;3.00;;;20.70;99.90;;;;;;5004596;28;20176;-69
2022/06/18 05:02:24;;;;;;;4.27;3.03;;;20.80;99.90;;;;;;5004647;28;20190;-71
2022/06/18 05:04:50;;;;;;;5.43;3.80;;;20.90;99.90;;;;;;5004642;28;20197;-70
2022/06/18 05:07:16;;;;;;;3.40;3.10;;;21.00;99.90;;;;;;5005103;28;20955;-71
2022/06/18 05:09:41;;;;;;;4.00;3.47;;;21.10;99.90;;;;;;5043848;22;20233;-69
2022/06/18 05:12:07;;;;;;;3.40;3.10;;;21.20;99.90;;;;;;5024250;28;20195;-70
2022/06/18 05:14:34;;;;;;;3.40;3.20;;;21.40;99.90;;;;;;5024032;28;20245;-69
2022/06/18 05:17:02;;;;;;;4.30;3.90;;;21.50;99.90;;;;;;5022991;28;20436;-69
2022/06/18 05:19:31;;;;;;;5.40;3.40;;;21.60;99.90;;;;;;5037902;28;20905;-70
2022/06/18 05:21:57;;;;;;;3.70;3.40;;;21.70;99.90;;;;;;5044788;28;20471;-70
2022/06/18 05:24:22;;;;;;;3.47;3.17;;;21.90;99.90;;;;;;5044717;28;20425;-69
2022/06/18 05:26:51;;;;;;;5.20;3.00;;;22.00;99.90;;;;;;5044589;28;20183;-70
2022/06/18 05:29:17;;;;;;;5.07;3.50;;;22.20;99.90;;;;;;5044216;28;20205;-70
2022/06/18 05:31:44;;;;;;;3.33;2.93;;;22.30;99.90;;;;;;5042115;28;20448;-71
2022/06/18 05:34:10;;;;;;;3.93;3.63;;;22.40;99.90;;;;;;5042670;28;20470;-70
2022/06/18 05:36:36;;;;;;;3.67;3.47;;;22.50;99.90;;;;;;5044101;28;20409;-70
2022/06/18 05:39:03;;;;;;;3.73;3.37;;;22.70;99.90;;;;;;5043652;28;20471;-69
2022/06/18 05:41:30;;;;;;;3.13;2.93;;;22.80;99.90;;;;;;5043924;28;20512;-68
2022/06/18 05:43:56;;;;;;;3.23;2.93;;;22.90;99.90;;;;;;5044338;28;20413;-70
2022/06/18 05:46:21;;;;;;;3.77;3.47;;;23.00;99.70;;;;;;5043216;28;20467;-70
2022/06/18 05:48:47;;;;;;;4.83;3.20;;;23.20;99.50;;;;;;5043884;28;20198;-68
2022/06/18 05:51:12;;;;;;;3.37;3.10;;;23.30;99.40;;;;;;5043660;28;20214;-69
2022/06/18 05:53:38;;;;;;;3.80;3.50;;;23.40;99.50;;;;;;5043822;28;20647;-68
2022/06/18 05:56:04;;;;;;;4.37;4.00;;;23.50;99.20;;;;;;5043461;28;21128;-69
2022/06/18 05:58:29;;;;;;;4.00;3.60;;;23.60;98.30;;;;;;5042698;28;20236;-69
2022/06/18 06:00:56;;;;;;;5.00;3.40;;;23.70;98.90;;;;;;5043344;28;20784;-68
2022/06/18 06:03:22;;;;;;;3.63;3.33;;;23.90;99.20;;;;;;5043638;28;20705;-68
2022/06/18 06:05:48;;;;;;;3.70;3.40;;;24.10;98.50;;;;;;5043639;28;20409;-69
2022/06/18 06:08:15;;;;;;;3.40;3.13;;;24.20;98.40;;;;;;5043156;28;20225;-71
2022/06/18 06:13:39;;;;;;;3.17;2.97;;;24.30;98.20;;;;;;5028115;28;20437;-68
2022/06/18 06:16:05;;;;;;;2.97;2.77;;;24.40;97.70;;;;;;5043371;28;20455;-69
2022/06/18 06:18:32;;;;;;;5.40;3.83;;;24.50;96.90;;;;;;5043509;28;20240;-70
2022/06/18 06:21:00;;;;;;;3.20;3.00;;;24.70;96.80;;;;;;5042127;28;20444;-69
2022/06/18 06:23:25;;;;;;;3.30;3.10;;;24.80;96.70;;;;;;5043414;28;20409;-69
2022/06/18 06:25:52;;;;;;;3.60;3.30;;;25.00;96.90;;;;;;5043610;28;20963;-69
2022/06/18 06:28:20;;;;;;;4.90;3.47;;;25.10;96.90;;;;;;5043363;28;20195;-69
2022/06/18 06:30:46;;;;;;;2.80;2.60;;;25.20;97.10;;;;;;5043293;28;21306;-69
2022/06/18 06:33:12;;;;;;;3.53;2.90;;;25.30;96.90;;;;;;5042902;28;20551;-69
2022/06/18 06:35:38;;;;;;;4.20;3.80;;;25.50;96.50;;;;;;5043583;28;20512;-69
2022/06/18 06:38:04;;;;;;;3.80;3.50;;;25.60;96.50;;;;;;5041976;28;20182;-69
2022/06/18 06:40:31;;;;;;;3.40;3.20;;;25.70;96.20;;;;;;5041904;28;20535;-69
2022/06/18 06:42:58;;;;;;;4.37;3.87;;;25.80;95.90;;;;;;5043294;28;20486;-68
2022/06/18 06:45:29;;;;;;;3.80;3.30;;;25.90;95.70;;;;;;5043555;28;20412;-69
2022/06/18 06:47:56;;;;;;;4.70;3.70;;;26.00;95.70;;;;;;5042594;28;20397;-69
2022/06/18 06:50:24;;;;;;;3.70;3.40;;;26.20;94.90;;;;;;5043135;28;20417;-70
2022/06/18 06:52:50;;;;;;;3.90;3.60;;;26.20;94.60;;;;;;5042938;28;20448;-68
2022/06/18 06:58:10;;;;;;;3.80;3.50;;;26.50;94.20;;;;;;5043031;28;20809;-68
2022/06/18 07:00:40;;;;;;;5.40;3.80;;;26.70;94.00;;;;;;5046446;28;20842;-69
2022/06/18 07:03:05;;;;;;;3.57;3.27;;;26.70;93.50;;;;;;5046074;28;20409;-68
2022/06/18 07:05:31;;;;;;;4.20;3.90;;;26.60;92.60;;;;;;5046470;28;20512;-68
2022/06/18 07:07:57;;;;;;;3.83;3.53;;;26.60;92.40;;;;;;5046275;28;20265;-69
2022/06/18 07:10:23;;;;;;;4.00;3.67;;;26.70;93.10;;;;;;5046718;28;20182;-69
2022/06/18 07:12:48;;;;;;;5.47;5.07;;;26.90;92.40;;;;;;5046586;28;20277;-68
2022/06/18 07:15:14;;;;;;;4.40;3.97;;;27.00;92.20;;;;;;5046605;28;20503;-68
2022/06/18 07:17:43;;;;;;;6.27;5.77;;;27.20;92.10;;;;;;5045510;28;20171;-69
2022/06/18 07:20:17;;;;;;;3.37;3.07;;;27.30;91.30;;;;;;5046435;28;20445;-69
2022/06/18 07:22:43;;;;;;;4.10;3.77;;;27.30;88.50;;;;;;5046283;28;20413;-69
2022/06/18 07:25:10;;;;;;;3.83;3.50;;;27.50;88.60;;;;;;5046115;28;20405;-70
2022/06/18 07:27:36;;;;;;;4.90;3.80;;;27.50;88.10;;;;;;5046277;28;20428;-70
2022/06/18 07:30:02;;;;;;;5.27;3.40;;;27.70;88.20;;;;;;5046170;28;20503;-68
2022/06/18 07:32:28;;;;;;;3.70;3.10;;;27.80;87.60;;;;;;5045525;28;21183;-69
2022/06/18 07:34:54;;;;;;;4.67;3.20;;;27.90;87.20;;;;;;5045998;28;20420;-70
2022/06/18 07:37:21;;;;;;;3.30;3.00;;;28.00;86.50;;;;;;5045809;28;20181;-69
2022/06/18 07:39:46;;;;;;;6.93;3.37;;;28.20;84.20;;;;;;5045919;28;20233;-68
2022/06/18 07:42:14;;;;;;;4.13;3.23;;;28.20;83.60;;;;;;5045743;28;20413;-70
2022/06/18 07:44:40;;;;;;;3.77;3.13;;;28.20;82.10;;;;;;5045561;28;20178;-69
2022/06/18 07:47:06;;;;;;;3.37;3.07;;;28.20;81.10;;;;;;5045431;28;20478;-70
2022/06/18 07:49:31;;;;;;;5.10;3.43;;;28.20;81.50;;;;;;5045417;28;20202;-69
2022/06/18 07:51:57;;;;;;;4.80;3.37;;;28.20;84.70;;;;;;5045583;28;20198;-70
2022/06/18 07:54:23;;;;;;;2.63;2.43;;;28.20;81.80;;;;;;5045404;28;20214;-70
2022/06/18 07:56:49;;;;;;;3.07;2.77;;;28.20;79.70;;;;;;5045697;28;20178;-71
2022/06/18 07:59:17;;;;;;;3.30;3.00;;;28.10;78.80;;;;;;5045413;28;21197;-70
2022/06/18 08:01:42;;;;;;;3.70;3.37;;;28.10;79.60;;;;;;5045324;28;20424;-70
2022/06/18 08:04:08;;;;;;;3.27;2.70;;;28.20;78.20;;;;;;5045416;28;20788;-70
2022/06/18 08:06:34;;;;;;;2.97;2.70;;;28.10;75.20;;;;;;5045404;28;20198;-70
2022/06/18 08:08:59;;;;;;;3.40;2.83;;;28.40;76.30;;;;;;5045217;28;20242;-69
2022/06/18 08:11:28;;;;;;;5.37;2.40;;;28.70;76.50;;;;;;5045157;28;20216;-69
2022/06/18 08:13:54;;;;;;;2.40;2.20;;;28.50;72.50;;;;;;5045471;28;20214;-69
2022/06/18 08:16:20;;;;;;;2.60;2.40;;;28.40;72.50;;;;;;5044652;28;20409;-69
2022/06/18 08:18:47;;;;;;;2.80;2.60;;;28.40;72.30;;;;;;5044678;28;20776;-70
2022/06/18 08:21:25;;;;;;;3.07;2.10;;;28.70;72.80;;;;;;5045219;28;20175;-70
2022/06/18 08:23:54;;;;;;;2.63;2.30;;;28.60;70.90;;;;;;5043950;28;20983;-70
2022/06/18 08:26:20;;;;;;;3.00;2.70;;;28.50;70.70;;;;;;5045275;28;20413;-70
2022/06/18 08:28:46;;;;;;;2.70;2.50;;;28.50;70.80;;;;;;5044970;28;20788;-69
2022/06/18 08:31:13;;;;;;;4.80;2.40;;;28.90;71.60;;;;;;5044997;28;20414;-70
2022/06/18 08:33:38;;;;;;;2.77;2.57;;;29.00;69.40;;;;;;5043069;28;20179;-70
2022/06/18 08:36:09;;;;;;;2.30;2.20;;;28.80;71.10;;;;;;5044890;28;20789;-69
2022/06/18 08:38:36;;;;;;;3.00;2.50;;;28.80;71.50;;;;;;5044586;28;20781;-69
2022/06/18 08:41:24;;;;;;;5.17;3.17;;;29.00;72.00;;;;;;5044777;28;20409;-70
2022/06/18 08:44:05;;;;;;;3.20;2.90;;;29.00;72.60;;;;;;5044732;28;20401;-71
2022/06/18 08:46:33;;;;;;;2.63;2.30;;;28.80;75.10;;;;;;5043013;28;20455;-71
2022/06/18 08:49:18;;;;;;;7.67;2.87;;;28.60;76.80;;;;;;5044691;28;20441;-70
2022/06/18 08:52:17;;;;;;;2.83;2.63;;;28.50;72.40;;;;;;5042872;28;20476;-71
2022/06/18 08:55:05;;;;;;;4.00;2.77;;;28.70;73.50;;;;;;5044477;28;20520;-71
2022/06/18 08:57:37;;;;;;;3.33;2.90;;;28.90;73.40;;;;;;5044151;28;20451;-71
2022/06/18 09:00:16;;;;;;;3.00;2.47;;;29.20;72.80;;;;;;5044285;28;20429;-70
2022/06/18 09:02:57;;;;;;;4.77;3.30;;;29.20;72.70;;;;;;5043898;28;20959;-70
2022/06/18 09:05:25;;;;;;;2.90;2.50;;;29.40;73.10;;;;;;5044256;28;20425;-70
2022/06/18 09:08:17;;;;;;;5.17;2.90;;;29.40;71.00;;;;;;5044163;28;20413;-69
2022/06/18 09:11:11;;;;;;;3.30;2.40;;;29.40;70.30;;;;;;5044362;28;20610;-71
2022/06/18 09:13:41;;;;;;;1.97;1.63;;;29.30;69.60;;;;;;5043712;28;20428;-72
2022/06/18 09:16:13;;;;;;;3.00;2.10;;;29.60;66.50;;;;;;5044328;28;20401;-70
2022/06/18 09:18:53;;;;;;;5.73;2.60;;;30.00;65.50;;;;;;5042375;28;20524;-71
2022/06/18 09:21:24;;;;;;;2.37;2.10;;;30.30;66.40;;;;;;5043725;28;20405;-70
2022/06/18 09:23:57;;;;;;;3.00;2.63;;;30.40;65.70;;;;;;5044343;28;20771;-69
2022/06/18 09:26:31;;;;;;;2.83;2.10;;;30.40;65.70;;;;;;5043931;28;20429;-70
2022/06/18 09:29:09;;;;;;;2.37;1.70;;;30.50;65.30;;;;;;5043897;28;20526;-69
2022/06/18 09:31:38;;;;;;;4.67;2.27;;;30.50;62.20;;;;;;5043513;28;20451;-69
2022/06/18 09:35:01;;;;;;;4.00;2.30;;;30.60;62.40;;;;;;5043548;28;20451;-69
2022/06/18 09:37:50;;;;;;;2.60;2.30;;;30.60;58.90;;;;;;5001652;28;21010;-69
2022/06/18 09:40:31;;;;;;;2.10;1.90;;;30.70;61.70;;;;;;5001723;28;20921;-70
2022/06/18 09:43:07;;;;;;;2.10;1.90;;;30.70;56.80;;;;;;5037506;28;20502;-69
2022/06/18 09:45:43;;;;;;;4.23;2.20;;;30.90;57.70;;;;;;5043981;28;20435;-70
2022/06/18 09:48:09;;;;;;;2.30;1.90;;;31.00;58.60;;;;;;5043259;28;20413;-69
2022/06/18 09:50:57;;;;;;;2.70;1.83;;;31.10;58.90;;;;;;5044023;28;20785;-69
2022/06/18 09:53:32;;;;;;;2.60;2.40;;;31.00;57.80;;;;;;5043577;28;20468;-71
2022/06/18 09:56:11;;;;;;;1.70;1.60;;;30.70;57.70;;;;;;5043695;28;20405;-70
2022/06/18 09:58:44;;;;;;;2.43;1.80;;;31.00;59.60;;;;;;5043296;28;20440;-70
2022/06/18 10:01:16;;;;;;;2.40;2.10;;;31.20;57.10;;;;;;5043670;28;20404;-72
2022/06/18 10:09:21;;;;;;;2.90;1.67;;;31.70;55.90;;;;;;5043694;28;20556;-71
2022/06/18 10:11:48;;;;;;;1.77;1.67;;;31.80;52.10;;;;;;5043455;28;20460;-71
2022/06/18 10:14:20;;;;;;;1.83;1.20;;;31.80;52.60;;;;;;5042218;28;20451;-70
2022/06/18 10:17:11;;;;;;;3.10;1.57;;;32.00;50.10;;;;;;5043098;28;20500;-70
2022/06/18 10:20:13;;;;;;;2.60;1.80;;;32.00;49.00;;;;;;5043399;28;20516;-71
2022/06/18 10:22:48;;;;;;;1.97;1.77;;;32.00;52.40;;;;;;5042128;28;20428;-71
2022/06/18 10:25:42;;;;;;;2.10;1.60;;;32.00;50.00;;;;;;5043496;28;20428;-70
2022/06/18 10:28:26;;;;;;;4.00;2.07;;;32.20;50.70;;;;;;5041899;28;20637;-71
2022/06/18 10:31:14;;;;;;;2.90;1.80;;;32.30;51.50;;;;;;5043471;28;20781;-70
2022/06/18 10:34:02;;;;;;;2.07;1.87;;;32.40;52.30;;;;;;5043528;28;20421;-70
2022/06/18 10:36:54;;;;;;;1.87;1.73;;;32.40;52.40;;;;;;5047083;28;20409;-72
2022/06/18 10:39:32;;;;;;;2.27;1.90;;;32.20;51.00;;;;;;5047195;28;20485;-71
2022/06/18 10:42:22;;;;;;;1.70;1.60;;;32.30;50.00;;;;;;5047046;28;20829;-71
2022/06/18 10:45:07;;;;;;;2.07;1.20;;;32.40;47.40;;;;;;5047028;28;20806;-71
2022/06/18 10:47:37;;;;;;;1.90;1.70;;;32.50;45.70;;;;;;5046249;28;20769;-70
2022/06/18 10:50:11;;;;;;;3.87;1.73;;;32.60;49.40;;;;;;5046685;28;20429;-71
2022/06/18 10:52:38;;;;;;;2.53;1.97;;;32.70;52.30;;;;;;5045409;28;20543;-72
2022/06/18 10:55:23;;;;;;;2.20;2.10;;;32.80;53.40;;;;;;5046741;28;20949;-71
2022/06/18 10:57:50;;;;;;;4.33;2.33;;;33.20;51.50;;;;;;5045016;28;20479;-72
2022/06/18 11:00:18;;;;;;;2.20;2.00;;;33.00;51.50;;;;;;5046705;28;20433;-72
2022/06/18 11:02:45;;;;;;;5.20;2.57;;;32.90;51.70;;;;;;5044923;28;20428;-72
2022/06/18 11:05:33;;;;;;;4.80;1.93;;;33.00;50.20;;;;;;5046505;28;20455;-69
2022/06/18 11:08:03;;;;;;;3.10;2.00;;;32.80;51.10;;;;;;5044902;28;20443;-70
2022/06/18 11:10:43;;;;;;;2.40;2.20;;;32.80;52.90;;;;;;5045832;28;20417;-71
2022/06/18 11:13:33;;;;;;;2.93;2.40;;;33.20;52.10;;;;;;5046360;28;20902;-70
2022/06/18 11:16:18;;;;;;;3.27;1.93;;;33.20;52.90;;;;;;5046308;28;20397;-73
2022/06/18 11:18:45;;;;;;;6.20;2.10;;;33.50;52.60;;;;;;5046089;28;20793;-71
2022/06/18 11:21:23;;;;;;;2.43;2.10;;;33.70;51.90;;;;;;5046325;28;20508;-70
2022/06/18 11:23:57;;;;;;;3.23;2.37;;;33.80;51.70;;;;;;5046325;28;20451;-70
2022/06/18 11:26:25;;;;;;;2.70;2.20;;;34.20;51.90;;;;;;5045955;28;20500;-71
2022/06/18 11:28:55;;;;;;;3.80;2.20;;;34.20;48.80;;;;;;5046251;28;20420;-71
2022/06/18 11:31:24;;;;;;;2.63;1.90;;;34.40;49.30;;;;;;5046195;28;20543;-71
2022/06/18 11:34:07;;;;;;;3.43;2.43;;;34.80;48.80;;;;;;5045760;28;20914;-71
2022/06/18 11:36:54;;;;;;;1.73;1.63;;;36.20;47.90;;;;;;5046279;28;20987;-73
2022/06/18 11:39:39;;;;;;;2.63;2.20;;;37.90;45.90;;;;;;5045980;28;20433;-73
2022/06/18 11:42:14;;;;;;;2.80;2.10;;;37.30;44.70;;;;;;5044554;28;20415;-71
2022/06/18 11:44:40;;;;;;;3.40;2.00;;;38.50;43.60;;;;;;5044443;28;20471;-71
2022/06/18 11:47:26;;;;;;;2.53;1.90;;;39.70;41.60;;;;;;5045233;28;20413;-72
2022/06/18 11:50:27;;;;;;;5.30;2.20;;;40.50;40.40;;;;;;5045379;28;20205;-72
2022/06/18 11:53:16;;;;;;;4.90;1.97;;;39.00;39.10;;;;;;5031552;28;20637;-71
2022/06/18 11:55:44;;;;;;;4.53;2.50;;;39.00;39.90;;;;;;5046006;28;20413;-71
2022/06/18 11:58:17;;;;;;;5.30;2.27;;;39.50;39.30;;;;;;5045445;28;20784;-71
2022/06/18 12:01:06;;;;;;;8.63;2.40;;;39.90;36.90;;;;;;5045896;28;20882;-71
2022/06/18 12:03:47;;;;;;;7.73;2.10;;;41.00;36.10;;;;;;5044877;28;20497;-73
2022/06/18 12:06:31;;;;;;;4.33;1.90;;;40.90;35.50;;;;;;5045871;28;20900;-73
2022/06/18 12:08:57;;;;;;;2.97;2.30;;;41.80;34.90;;;;;;5045600;28;20452;-71
2022/06/18 12:11:46;;;;;;;8.30;2.40;;;40.60;35.20;;;;;;5045588;28;20506;-70
2022/06/18 12:14:19;;;;;;;3.50;2.20;;;40.10;35.00;;;;;;5045633;28;20166;-70
2022/06/18 12:16:53;;;;;;;3.10;2.10;;;39.60;36.60;;;;;;5045596;28;20400;-71
2022/06/18 12:19:42;;;;;;;7.37;2.83;;;40.00;35.40;;;;;;5044988;28;20453;-71
2022/06/18 12:22:18;;;;;;;4.87;1.93;;;39.90;36.80;;;;;;5045577;28;20412;-73
2022/06/18 12:24:56;;;;;;;4.73;2.10;;;41.00;36.10;;;;;;5045173;28;20904;-73
2022/06/18 12:27:28;;;;;;;3.53;2.33;;;41.10;34.80;;;;;;5044921;28;20427;-73
2022/06/18 12:30:05;;;;;;;6.60;2.80;;;41.30;35.30;;;;;;5043667;28;20933;-73
2022/06/18 12:32:34;;;;;;;3.63;2.20;;;41.70;34.30;;;;;;5044566;28;20452;-73
2022/06/18 12:35:19;;;;;;;7.00;3.00;;;42.10;34.50;;;;;;5044315;28;20415;-73
2022/06/18 12:37:56;;;;;;;7.97;2.80;;;42.00;33.20;;;;;;5045065;28;20272;-72
2022/06/18 12:40:42;;;;;;;9.20;3.13;;;41.70;34.00;;;;;;5044776;28;20401;-72
2022/06/18 12:43:22;;;;;;;8.13;3.00;;;41.20;36.10;;;;;;5044812;28;20408;-71
2022/06/18 12:45:54;;;;;;;12.67;3.00;;;41.40;34.10;;;;;;5044600;28;20415;-75
2022/06/18 12:48:48;;;;;;;7.07;2.93;;;42.00;33.70;;;;;;5044335;28;20440;-74
2022/06/18 12:51:32;;;;;;;8.77;2.97;;;43.00;33.50;;;;;;5044607;28;20476;-74
2022/06/18 12:54:09;;;;;;;9.57;3.17;;;42.90;33.40;;;;;;5044553;28;20487;-73
2022/06/18 12:57:01;;;;;;;8.10;3.20;;;42.10;34.30;;;;;;5043790;28;20893;-72
2022/06/18 12:59:39;;;;;;;7.13;2.90;;;41.50;34.50;;;;;;5044380;28;20436;-73
2022/06/18 13:02:35;;;;;;;9.77;2.90;;;41.80;34.90;;;;;;5044549;28;20458;-72
2022/06/18 13:05:07;;;;;;;5.90;3.50;;;42.60;33.20;;;;;;5044103;28;20441;-71
2022/06/18 13:07:57;;;;;;;9.90;3.20;;;42.40;34.20;;;;;;5043939;28;20966;-73
2022/06/18 13:10:58;;;;;;;9.90;3.13;;;42.50;34.30;;;;;;5051003;22;20481;-73
2022/06/18 13:13:33;;;;;;;6.20;3.07;;;42.20;34.20;;;;;;5024339;28;20237;-74
2022/06/18 13:16:14;;;;;;;7.57;3.37;;;41.80;35.10;;;;;;5023345;28;20783;-73
2022/06/18 13:18:51;;;;;;;4.30;2.70;;;41.40;35.60;;;;;;5021833;28;20504;-74
2022/06/18 13:21:17;;;;;;;6.37;3.33;;;41.60;35.60;;;;;;5023994;28;20595;-74
2022/06/18 13:29:55;;;;;;;7.23;3.07;;;42.50;35.60;;;;;;5024177;28;20709;-74
2022/06/18 13:32:58;;;;;;;5.53;3.20;;;42.50;34.20;;;;;;5023826;28;20453;-74
2022/06/18 13:35:29;;;;;;;6.33;3.10;;;43.10;34.00;;;;;;5023782;28;20178;-74
2022/06/18 13:38:18;;;;;;;7.40;3.10;;;42.30;35.10;;;;;;5023885;28;20175;-74